Time;durP1;ratioP1;P1;durP2;ratioP2;P2;SDS_P1;SDS_P2;PMS_P1;PMS_P2;Temp;Humidity;BMP_temperature;BMP_pressure;BME280_temperature;BME280_humidity;BME280_pressure;Samples;Min_cycle;Max_cycle;Signal;HPM_P1;HPM_P2
2021/12/27 00:01:54;;;;;;;1999.90;999.90;;;;;;;-7.72;87.29;160353.31;5044606;28;20491;-65
2021/12/27 00:04:21;;;;;;;1999.90;999.90;;;;;;;-7.70;87.13;160358.72;5045318;28;20060;-65
2021/12/27 00:06:48;;;;;;;1999.90;999.90;;;;;;;-7.04;85.71;160532.69;5041095;28;20122;-65
2021/12/27 00:09:14;;;;;;;1999.90;999.90;;;;;;;-6.88;84.79;160574.88;5034264;28;20076;-65
2021/12/27 00:11:42;;;;;;;1999.90;999.90;;;;;;;-7.65;85.32;160372.28;5033660;28;20450;-65
2021/12/27 00:14:09;;;;;;;1999.90;999.90;;;;;;;-8.15;87.80;160241.88;5040282;28;20092;-65
2021/12/27 00:16:35;;;;;;;1999.90;999.90;;;;;;;-7.46;86.58;160423.97;5042840;28;20438;-65
2021/12/27 00:19:02;;;;;;;1999.90;999.90;;;;;;;-6.94;85.21;160561.25;5037919;28;20318;-65
2021/12/27 00:21:29;;;;;;;1999.90;999.90;;;;;;;-6.74;84.40;160614.31;5043666;28;20091;-65
2021/12/27 00:23:55;;;;;;;1999.90;999.90;;;;;;;-6.64;84.05;160640.16;5041459;28;20045;-65
2021/12/27 00:26:22;;;;;;;1999.90;999.90;;;;;;;-6.90;84.11;160570.78;5038355;28;20505;-65
2021/12/27 00:28:50;;;;;;;1999.90;999.90;;;;;;;-6.84;83.83;160587.09;5038127;28;20077;-65
2021/12/27 00:31:17;;;;;;;1999.90;999.90;;;;;;;-7.00;84.35;160543.59;5036324;28;20072;-65
2021/12/27 00:33:43;;;;;;;1999.90;999.90;;;;;;;-7.03;84.80;160535.44;5042778;28;20041;-65
2021/12/27 00:36:10;;;;;;;1999.90;999.90;;;;;;;-6.66;83.90;160634.69;5043134;28;20331;-65
2021/12/27 00:38:36;;;;;;;1999.90;999.90;;;;;;;-6.78;84.01;160603.41;5041644;28;20179;-65
2021/12/27 00:41:03;;;;;;;1999.90;999.90;;;;;;;-7.06;85.15;160527.28;5047829;28;20518;-65
2021/12/27 00:43:29;;;;;;;1999.90;999.90;;;;;;;-6.70;84.43;160622.47;5036097;28;20107;-65
2021/12/27 00:45:56;;;;;;;1999.90;999.90;;;;;;;-8.01;86.45;160278.59;5047242;28;20080;-64
2021/12/27 00:48:24;;;;;;;1999.90;999.90;;;;;;;-7.41;87.29;160434.81;5041303;28;20052;-65
2021/12/27 00:50:51;;;;;;;1999.90;999.90;;;;;;;-6.87;85.78;160578.94;5034979;28;20841;-65
2021/12/27 00:53:17;;;;;;;1999.90;999.90;;;;;;;-6.76;84.66;160608.88;5042089;28;20116;-66
2021/12/27 00:55:44;;;;;;;1999.90;999.90;;;;;;;-8.13;89.42;160245.94;5038936;28;20044;-65
2021/12/27 00:58:12;;;;;;;1999.90;999.90;;;;;;;-7.06;86.83;160527.28;5044404;28;20526;-65
2021/12/27 01:00:38;;;;;;;1999.90;999.90;;;;;;;-6.67;85.66;160630.63;5042027;28;20053;-65
2021/12/27 01:03:05;;;;;;;1999.90;999.90;;;;;;;-6.70;83.95;160622.47;5041570;28;20064;-65
2021/12/27 01:05:32;;;;;;;1999.90;999.90;;;;;;;-7.49;85.68;160415.84;5038668;28;20134;-65
2021/12/27 01:07:59;;;;;;;1999.90;999.90;;;;;;;-8.36;89.52;160184.84;5040066;28;20059;-65
2021/12/27 01:10:53;;;;;;;1999.90;999.90;;;;;;;-7.44;87.42;160429.41;5039057;28;20147;-65
2021/12/27 01:15:51;;;;;;;1999.90;999.90;;;;;;;-7.47;87.31;160421.25;5039088;28;20068;-65
2021/12/27 01:18:19;;;;;;;1999.90;999.90;;;;;;;-8.36;89.15;160186.19;5035573;28;20045;-66
2021/12/27 01:20:46;;;;;;;1999.90;999.90;;;;;;;-8.01;90.10;160277.19;5043594;28;20415;-66
2021/12/27 01:23:13;;;;;;;1999.90;999.90;;;;;;;-7.71;89.03;160356.00;5042738;28;20084;-66
2021/12/27 01:25:40;;;;;;;1999.90;999.90;;;;;;;-7.39;87.43;160441.63;5039532;28;20082;-66
2021/12/27 01:28:07;;;;;;;1999.90;999.90;;;;;;;-7.37;86.76;160445.69;5045303;28;20044;-66
2021/12/27 01:30:38;;;;;;;1999.90;999.90;;;;;;;-7.42;85.96;160433.47;5037753;28;20048;-66
2021/12/27 01:33:07;;;;;;;1999.90;999.90;;;;;;;-7.30;85.63;160466.06;5040921;28;20081;-66
2021/12/27 01:35:35;;;;;;;1999.90;999.90;;;;;;;-7.37;86.25;160445.69;5042681;28;20445;-66
2021/12/27 01:38:03;;;;;;;1999.90;999.90;;;;;;;-7.93;87.18;160297.56;5037899;28;20541;-66
2021/12/27 01:40:30;;;;;;;1999.90;999.90;;;;;;;-8.36;88.85;160184.84;5040316;28;20341;-66
2021/12/27 01:43:15;;;;;;;1999.90;999.90;;;;;;;-8.91;89.94;160040.94;5041579;28;20461;-66
2021/12/27 01:45:49;;;;;;;1999.90;999.90;;;;;;;-8.68;91.77;160100.69;5044040;28;20042;-66
2021/12/27 01:48:21;;;;;;;1999.90;999.90;;;;;;;-7.57;88.01;160394.06;5047038;28;20060;-66
2021/12/27 01:50:50;;;;;;;1999.90;999.90;;;;;;;-7.28;86.36;160470.16;5042565;28;20478;-66
2021/12/27 01:53:18;;;;;;;1999.90;999.90;;;;;;;-7.69;86.17;160361.47;5045031;28;20091;-66
2021/12/27 01:55:45;;;;;;;1999.90;999.90;;;;;;;-7.25;85.44;160478.31;5038927;28;20095;-66
2021/12/27 01:58:12;;;;;;;1999.90;999.90;;;;;;;-7.15;83.94;160504.16;5046868;28;20399;-66
2021/12/27 02:00:42;;;;;;;1999.90;999.90;;;;;;;-7.14;83.85;160508.25;5038870;28;20182;-66
2021/12/27 02:03:10;;;;;;;1999.90;999.90;;;;;;;-6.64;83.31;160640.16;5046098;28;20135;-66
2021/12/27 02:05:36;;;;;;;1999.90;999.90;;;;;;;-6.33;82.22;160720.41;5045364;28;20086;-66
2021/12/27 02:08:04;;;;;;;1999.90;999.90;;;;;;;-6.26;81.48;160739.44;5045321;28;20417;-66
2021/12/27 02:10:32;;;;;;;1999.90;999.90;;;;;;;-7.01;82.57;160542.25;5045763;28;20095;-66
2021/12/27 02:12:59;;;;;;;1999.90;999.90;;;;;;;-6.53;81.93;160667.31;5044522;28;20049;-64
2021/12/27 02:15:26;;;;;;;1999.90;999.90;;;;;;;-6.28;81.21;160733.97;5044439;28;20049;-65
2021/12/27 02:17:54;;;;;;;1999.90;999.90;;;;;;;-7.26;82.25;160476.97;5045031;28;20084;-64
2021/12/27 02:20:29;;;;;;;1999.90;999.90;;;;;;;-7.34;84.12;160455.25;5042098;28;20041;-65
2021/12/27 02:23:01;;;;;;;1999.90;999.90;;;;;;;-7.00;82.67;160543.59;5046539;28;20081;-64
2021/12/27 02:25:33;;;;;;;1999.90;999.90;;;;;;;-7.86;84.71;160317.97;5038673;28;20438;-64
2021/12/27 02:28:03;;;;;;;1999.90;999.90;;;;;;;-9.17;88.73;159970.38;5042298;28;20148;-64
2021/12/27 02:30:30;;;;;;;1999.90;999.90;;;;;;;-8.96;90.91;160027.41;5039410;28;20057;-64
2021/12/27 02:33:00;;;;;;;1999.90;999.90;;;;;;;-8.07;87.88;160260.91;5046049;28;20119;-64
2021/12/27 02:35:34;;;;;;;1999.90;999.90;;;;;;;-8.21;87.12;160225.56;5044196;28;20451;-64
2021/12/27 02:38:02;;;;;;;1999.90;999.90;;;;;;;-7.72;85.98;160353.31;5043967;28;20045;-64
2021/12/27 02:40:32;;;;;;;1999.90;999.90;;;;;;;-7.65;86.29;160372.28;5044223;28;20399;-65
2021/12/27 02:43:12;;;;;;;1999.90;999.90;;;;;;;-7.61;85.82;160383.19;5041097;28;20088;-64
2021/12/27 02:45:43;;;;;;;1999.90;999.90;;;;;;;-7.68;86.28;160364.16;5050013;28;20095;-65
2021/12/27 02:48:10;;;;;;;;;;;;;;;-7.90;86.37;160305.75;5044541;28;20048;-65
2021/12/27 02:50:37;;;;;;;1999.90;999.90;;;;;;;-8.02;86.87;160274.50;5043625;28;19983;-65
2021/12/27 02:53:05;;;;;;;1999.90;999.90;;;;;;;-7.98;87.31;160285.34;5042690;28;20076;-65
2021/12/27 02:55:32;;;;;;;1999.90;999.90;;;;;;;-8.65;88.85;160107.47;5036157;28;20524;-65
2021/12/27 02:57:59;;;;;;;1999.90;999.90;;;;;;;-8.97;91.32;160024.66;5043671;28;20044;-65
2021/12/27 03:00:58;;;;;;;1999.90;999.90;;;;;;;-8.45;89.65;160160.47;5039088;28;20321;-65
2021/12/27 03:03:26;;;;;;;1999.90;999.90;;;;;;;-8.90;91.06;160043.69;5044381;28;20420;-65
2021/12/27 03:05:53;;;;;;;1999.90;999.90;;;;;;;-8.98;92.29;160021.94;5047144;28;20080;-65
2021/12/27 03:08:21;;;;;;;1999.90;999.90;;;;;;;-8.82;91.99;160062.69;5045123;28;20114;-64
2021/12/27 03:10:50;;;;;;;1999.90;999.90;;;;;;;-8.47;90.36;160155.00;5043792;28;20523;-65
2021/12/27 03:13:22;;;;;;;1999.90;999.90;;;;;;;-8.36;90.96;160186.19;5038732;28;20088;-65
2021/12/27 03:15:57;;;;;;;1999.90;999.90;;;;;;;-8.19;88.83;160229.66;5045296;28;20049;-65
2021/12/27 03:18:24;;;;;;;1999.90;999.90;;;;;;;-8.11;89.68;160251.41;5047540;28;20049;-64
2021/12/27 03:20:52;;;;;;;1999.90;999.90;;;;;;;-8.18;88.78;160233.72;5037058;28;20091;-64
2021/12/27 03:23:21;;;;;;;1999.90;999.90;;;;;;;-8.65;90.31;160108.81;5044000;28;20053;-64
2021/12/27 03:25:47;;;;;;;1999.90;999.90;;;;;;;-8.16;89.35;160239.19;5042876;28;20037;-65
2021/12/27 03:28:14;;;;;;;1999.90;999.90;;;;;;;-7.85;88.52;160320.66;5045929;28;20114;-64
2021/12/27 03:30:41;;;;;;;1999.90;999.90;;;;;;;-7.51;87.02;160410.38;5036379;28;20103;-64
2021/12/27 03:33:09;;;;;;;1999.90;999.90;;;;;;;-7.37;85.59;160447.03;5040148;28;20053;-65
2021/12/27 03:35:39;;;;;;;1999.90;999.90;;;;;;;-7.29;85.80;160467.47;5047443;28;20417;-65
2021/12/27 03:38:10;;;;;;;1999.90;999.90;;;;;;;-7.75;87.13;160345.16;5038769;28;20080;-65
2021/12/27 03:40:39;;;;;;;1999.90;999.90;;;;;;;-6.88;85.61;160576.22;5039175;28;20076;-65
2021/12/27 03:43:05;;;;;;;1999.90;999.90;;;;;;;-7.00;85.01;160544.94;5035469;28;20225;-65
2021/12/27 03:45:35;;;;;;;1999.90;999.90;;;;;;;-6.62;84.57;160644.25;5042855;28;20052;-65
2021/12/27 03:48:04;;;;;;;1999.90;999.90;;;;;;;-6.25;83.05;160742.13;5043976;28;20052;-65
2021/12/27 03:50:31;;;;;;;1999.90;999.90;;;;;;;-6.78;84.22;160602.06;5045935;28;20048;-65
2021/12/27 03:52:58;;;;;;;1999.90;999.90;;;;;;;-6.87;84.71;160578.94;5039943;28;20507;-65
2021/12/27 03:55:25;;;;;;;1999.90;999.90;;;;;;;-7.28;85.74;160471.56;5039798;28;20527;-64
2021/12/27 03:57:54;;;;;;;1999.90;999.90;;;;;;;-7.57;87.68;160394.06;5043338;28;20052;-65
2021/12/27 04:02:54;;;;;;;1999.90;999.90;;;;;;;-7.13;87.05;160509.56;5041235;28;20072;-65
2021/12/27 04:05:21;;;;;;;1999.90;999.90;;;;;;;-6.86;85.43;160581.69;5033064;28;20049;-66
2021/12/27 04:07:57;;;;;;;1999.90;999.90;;;;;;;-7.07;86.19;160525.94;5038194;28;20084;-65
2021/12/27 04:10:23;;;;;;;1999.90;999.90;;;;;;;-7.17;87.22;160500.09;5040683;28;20464;-66
2021/12/27 04:12:50;;;;;;;1999.90;999.90;;;;;;;-8.10;90.03;160252.75;5036325;28;20084;-65
2021/12/27 04:15:16;;;;;;;1999.90;999.90;;;;;;;-7.69;90.30;160362.81;5033854;28;20462;-65
2021/12/27 04:17:43;;;;;;;1999.90;999.90;;;;;;;-7.57;89.70;160394.06;5040435;28;20129;-65
2021/12/27 04:20:10;;;;;;;1999.90;999.90;;;;;;;-7.61;89.48;160383.19;5034960;28;20472;-65
2021/12/27 04:22:36;;;;;;;1999.90;999.90;;;;;;;-7.06;88.34;160527.28;5038824;28;20122;-65
2021/12/27 04:25:13;;;;;;;1999.90;999.90;;;;;;;-6.76;86.28;160607.50;5038024;28;20049;-65
2021/12/27 04:27:40;;;;;;;1999.90;999.90;;;;;;;-6.96;87.26;160554.47;5046629;28;20468;-66
2021/12/27 04:30:07;;;;;;;1999.90;999.90;;;;;;;-6.74;85.83;160614.31;5032620;28;20077;-66
2021/12/27 04:32:34;;;;;;;1999.90;999.90;;;;;;;-6.85;86.46;160584.38;5034858;28;20451;-66
2021/12/27 04:35:01;;;;;;;1999.90;999.90;;;;;;;-6.76;85.94;160608.88;5038258;28;20118;-65
2021/12/27 04:37:30;;;;;;;1999.90;999.90;;;;;;;-6.98;86.87;160549.00;5042707;28;20354;-66
2021/12/27 04:39:58;;;;;;;1999.90;999.90;;;;;;;-7.41;88.17;160434.81;5044295;28;20117;-66
2021/12/27 04:42:29;;;;;;;1999.90;999.90;;;;;;;-7.84;89.24;160323.41;5045107;28;20045;-66
2021/12/27 04:44:55;;;;;;;;;;;;;;;-7.60;88.92;160385.91;5036725;28;20080;-66
2021/12/27 04:47:23;;;;;;;1999.90;999.90;;;;;;;-7.59;89.30;160388.66;5040203;28;20274;-66
2021/12/27 04:49:50;;;;;;;1999.90;999.90;;;;;;;-8.24;91.53;160217.44;5038764;28;20049;-65
2021/12/27 04:52:16;;;;;;;1999.90;999.90;;;;;;;-7.70;90.73;160358.72;5041159;28;20342;-65
2021/12/27 04:54:43;;;;;;;1999.90;999.90;;;;;;;-8.32;93.01;160195.69;5036499;28;20084;-65
2021/12/27 04:57:10;;;;;;;1999.90;999.90;;;;;;;-8.00;91.96;160279.91;5042341;28;20104;-65
2021/12/27 04:59:36;;;;;;;1999.90;999.90;;;;;;;-8.48;92.68;160152.28;5045688;28;20052;-65
2021/12/27 05:02:03;;;;;;;1999.90;999.90;;;;;;;-8.30;93.07;160199.78;5040026;28;20042;-65
2021/12/27 05:04:30;;;;;;;1999.90;999.90;;;;;;;-8.51;94.16;160145.53;5042463;28;20076;-65
2021/12/27 05:06:57;;;;;;;1999.90;999.90;;;;;;;-8.37;92.91;160182.13;5045422;28;20072;-65
2021/12/27 05:09:23;;;;;;;1999.90;999.90;;;;;;;-8.61;93.24;160119.69;5035999;28;20092;-65
2021/12/27 05:11:50;;;;;;;1999.90;999.90;;;;;;;-8.59;94.11;160123.75;5036813;28;20135;-65
2021/12/27 05:14:17;;;;;;;1999.90;999.90;;;;;;;-8.25;92.80;160214.69;5033590;28;20095;-66
2021/12/27 05:16:44;;;;;;;1999.90;999.90;;;;;;;-8.12;92.59;160247.34;5032738;28;20124;-66
2021/12/27 05:19:12;;;;;;;1999.90;999.90;;;;;;;-7.53;90.54;160404.94;5033891;28;20114;-66
2021/12/27 05:21:39;;;;;;;1999.90;999.90;;;;;;;-7.30;89.91;160464.75;5038334;28;20049;-65
2021/12/27 05:24:06;;;;;;;1999.90;999.90;;;;;;;-7.87;90.68;160313.91;5037426;28;20064;-65
2021/12/27 05:26:33;;;;;;;1999.90;999.90;;;;;;;-8.04;90.97;160270.44;5033547;28;20274;-65
2021/12/27 05:28:59;;;;;;;1999.90;999.90;;;;;;;-8.40;92.20;160173.97;5039858;28;20045;-65
2021/12/27 05:31:29;;;;;;;1999.90;999.90;;;;;;;-8.60;94.81;160122.44;5038426;28;20072;-65
2021/12/27 05:33:56;;;;;;;1999.90;999.90;;;;;;;-7.72;91.79;160353.31;5038091;28;20107;-65
2021/12/27 05:36:23;;;;;;;1999.90;999.90;;;;;;;-7.35;89.57;160451.13;5047339;28;20085;-66
2021/12/27 05:38:49;;;;;;;1999.90;999.90;;;;;;;-7.88;90.15;160312.50;5039730;28;20076;-66
2021/12/27 05:41:16;;;;;;;1999.90;999.90;;;;;;;-8.38;93.59;160179.38;5046628;28;20497;-65
2021/12/27 05:43:43;;;;;;;1999.90;999.90;;;;;;;-7.97;91.50;160289.41;5041698;28;20222;-66
2021/12/27 05:46:09;;;;;;;1999.90;999.90;;;;;;;-8.02;92.49;160274.50;5040676;28;20054;-66
2021/12/27 05:48:36;;;;;;;1999.90;999.90;;;;;;;-8.14;92.47;160243.25;5043728;28;20462;-65
2021/12/27 05:51:02;;;;;;;1999.90;999.90;;;;;;;-7.70;91.51;160358.72;5044260;28;20136;-66
2021/12/27 05:53:29;;;;;;;1999.90;999.90;;;;;;;-7.57;91.26;160394.06;5045175;28;20076;-66
2021/12/27 05:55:55;;;;;;;1999.90;999.90;;;;;;;-7.19;88.63;160494.66;5043909;28;20107;-66
2021/12/27 05:58:22;;;;;;;1999.90;999.90;;;;;;;-7.64;90.40;160376.38;5043253;28;20403;-66
2021/12/27 06:00:49;;;;;;;1999.90;999.90;;;;;;;-7.69;90.54;160361.47;5047339;28;20077;-66
2021/12/27 06:03:15;;;;;;;1999.90;999.90;;;;;;;-7.59;89.26;160387.25;5044443;28;20060;-66
2021/12/27 06:05:42;;;;;;;1999.90;999.90;;;;;;;-8.01;90.29;160278.59;5049007;28;20088;-66
2021/12/27 06:08:09;;;;;;;1999.90;999.90;;;;;;;-8.10;91.96;160252.75;5044250;28;20142;-66
2021/12/27 06:10:35;;;;;;;1999.90;999.90;;;;;;;-8.77;94.35;160077.59;5049086;28;20148;-66
2021/12/27 06:13:02;;;;;;;1999.90;999.90;;;;;;;-8.35;94.03;160187.53;5043097;28;20084;-66
2021/12/27 06:15:29;;;;;;;1999.90;999.90;;;;;;;-8.73;94.73;160087.13;5041449;28;20079;-66
2021/12/27 06:17:55;;;;;;;1999.90;999.90;;;;;;;-9.03;96.13;160008.38;5038461;28;20057;-66
2021/12/27 06:20:22;;;;;;;1999.90;999.90;;;;;;;-8.10;93.74;160252.75;5047987;28;20381;-66
2021/12/27 06:22:53;;;;;;;1999.90;999.90;;;;;;;-8.51;93.36;160146.84;5046089;28;20100;-66
2021/12/27 06:25:20;;;;;;;1999.90;999.90;;;;;;;-8.97;95.47;160024.66;5047913;28;20048;-66
2021/12/27 06:27:46;;;;;;;1999.90;999.90;;;;;;;-9.07;95.72;159997.50;5048866;28;20118;-65
2021/12/27 06:30:14;;;;;;;1999.90;999.90;;;;;;;-8.53;95.54;160140.06;5041637;28;20092;-66
2021/12/27 06:32:42;;;;;;;1999.90;999.90;;;;;;;-8.71;95.43;160092.53;5036363;28;20131;-66
2021/12/27 06:35:11;;;;;;;1999.90;999.90;;;;;;;-9.00;95.52;160016.53;5041848;28;20504;-66
2021/12/27 06:37:42;;;;;;;1999.90;999.90;;;;;;;-8.68;95.23;160100.69;5045141;28;20045;-65
2021/12/27 06:40:10;;;;;;;1999.90;999.90;;;;;;;-8.37;94.41;160182.13;5037844;28;20402;-66
2021/12/27 06:42:37;;;;;;;1999.90;999.90;;;;;;;-8.53;94.51;160140.06;5048972;28;20095;-65
2021/12/27 06:45:04;;;;;;;1999.90;999.90;;;;;;;-8.42;93.25;160169.91;5042783;28;20103;-65
2021/12/27 06:47:31;;;;;;;1999.90;999.90;;;;;;;-8.70;92.95;160095.25;5048518;28;20041;-66
2021/12/27 06:49:57;;;;;;;1999.90;999.90;;;;;;;-8.71;94.88;160093.94;5045762;28;20133;-66
2021/12/27 06:52:25;;;;;;;1999.90;999.90;;;;;;;-8.96;95.92;160026.00;5041685;28;20123;-65
2021/12/27 06:54:51;;;;;;;1999.90;999.90;;;;;;;-8.32;94.37;160197.06;5046840;28;21140;-66
2021/12/27 06:57:27;;;;;;;1999.90;999.90;;;;;;;-9.46;96.19;159894.38;5046330;28;20045;-66
2021/12/27 06:59:54;;;;;;;1999.90;999.90;;;;;;;-9.13;96.97;159981.22;5039921;28;20172;-66
2021/12/27 07:02:20;;;;;;;1999.90;999.90;;;;;;;-9.51;97.85;159880.78;5039266;28;20045;-66
2021/12/27 07:04:47;;;;;;;1999.90;999.90;;;;;;;-9.71;99.36;159829.25;5048419;28;20466;-66
2021/12/27 07:07:14;;;;;;;1999.90;999.90;;;;;;;-9.52;99.16;159879.44;5044726;28;20072;-66
2021/12/27 07:09:40;;;;;;;1999.90;999.90;;;;;;;-8.99;96.69;160019.25;5041158;28;20662;-66
2021/12/27 07:12:07;;;;;;;1999.90;999.90;;;;;;;-9.86;99.00;159788.56;5039702;28;20045;-66
2021/12/27 07:14:34;;;;;;;1999.90;999.90;;;;;;;-9.09;98.36;159993.44;5041658;28;20118;-66
2021/12/27 07:17:01;;;;;;;1999.90;999.90;;;;;;;-9.81;98.91;159802.09;5040436;28;20064;-66
2021/12/27 07:19:27;;;;;;;1999.90;999.90;;;;;;;-9.39;97.76;159914.72;5047569;28;20090;-65
2021/12/27 07:21:55;;;;;;;1999.90;999.90;;;;;;;-8.93;96.03;160034.16;5042596;28;20045;-65
2021/12/27 07:24:22;;;;;;;1999.90;999.90;;;;;;;-9.39;96.18;159913.38;5043987;28;20090;-66
2021/12/27 07:26:48;;;;;;;1999.90;999.90;;;;;;;-8.93;96.33;160035.53;5046948;28;20194;-66
2021/12/27 07:29:15;;;;;;;1999.90;999.90;;;;;;;-9.43;96.92;159902.53;5044332;28;20085;-66
2021/12/27 07:31:42;;;;;;;1999.90;999.90;;;;;;;-9.79;98.62;159808.91;5044724;28;20146;-66
2021/12/27 07:34:09;;;;;;;1999.90;999.90;;;;;;;-10.05;100.00;159738.38;5038206;28;20435;-65
2021/12/27 07:36:36;;;;;;;1999.90;999.90;;;;;;;-9.56;98.93;159868.59;5035969;28;20068;-66
2021/12/27 07:39:05;;;;;;;1999.90;999.90;;;;;;;-9.36;97.09;159920.13;5039275;28;20052;-66
2021/12/27 07:41:32;;;;;;;1999.90;999.90;;;;;;;-9.47;97.80;159891.66;5037193;28;20367;-66
2021/12/27 07:43:58;;;;;;;1999.90;999.90;;;;;;;-9.02;96.78;160011.06;5044406;28;20040;-66
2021/12/27 07:46:25;;;;;;;1999.90;999.90;;;;;;;-8.69;95.47;160098.00;5042543;28;20105;-66
2021/12/27 07:48:51;;;;;;;1999.90;999.90;;;;;;;-8.77;94.64;160076.25;5047016;28;20072;-67
2021/12/27 07:51:18;;;;;;;1999.90;999.90;;;;;;;-9.18;95.08;159967.63;5041843;28;20235;-66
2021/12/27 07:53:45;;;;;;;1999.90;999.90;;;;;;;-10.18;99.28;159704.44;5042271;28;20131;-66
2021/12/27 07:56:12;;;;;;;1999.90;999.90;;;;;;;-9.77;99.43;159812.97;5044209;28;20317;-66
2021/12/27 07:58:39;;;;;;;1999.90;999.90;;;;;;;-9.74;99.07;159821.09;5047267;28;20119;-65
2021/12/27 08:01:06;;;;;;;1999.90;999.90;;;;;;;-9.33;97.84;159929.66;5039356;28;20107;-66
2021/12/27 08:03:32;;;;;;;1999.90;999.90;;;;;;;-9.95;97.98;159766.84;5045371;28;20408;-66
2021/12/27 08:05:59;;;;;;;1999.90;999.90;;;;;;;-9.38;97.98;159916.06;5036385;28;20049;-66
2021/12/27 08:08:25;;;;;;;1999.90;999.90;;;;;;;-9.77;97.59;159814.31;5044735;28;20045;-66
2021/12/27 08:10:52;;;;;;;1999.90;999.90;;;;;;;-9.50;96.75;159883.53;5042768;28;20087;-66
2021/12/27 08:13:19;;;;;;;1999.90;999.90;;;;;;;-9.28;95.80;159943.22;5036926;28;20434;-66
2021/12/27 08:15:45;;;;;;;1999.90;999.90;;;;;;;-9.56;95.59;159868.59;5041634;28;20103;-65
2021/12/27 08:18:12;;;;;;;1999.90;999.90;;;;;;;-9.57;96.56;159865.84;5038047;28;20354;-66
2021/12/27 08:20:39;;;;;;;1999.90;999.90;;;;;;;-9.27;94.94;159945.94;5042121;28;20072;-66
2021/12/27 08:23:05;;;;;;;1999.90;999.90;;;;;;;-9.46;95.28;159894.38;5041074;28;20083;-66
2021/12/27 08:25:32;;;;;;;1999.90;999.90;;;;;;;-9.09;94.43;159992.09;5046314;28;20049;-66
2021/12/27 08:27:59;;;;;;;1999.90;999.90;;;;;;;-9.32;94.14;159932.34;5043536;28;20049;-66
2021/12/27 08:30:25;;;;;;;1999.90;999.90;;;;;;;-9.18;94.55;159967.63;5039280;28;20076;-66
2021/12/27 08:32:54;;;;;;;1999.90;999.90;;;;;;;-9.12;94.47;159985.31;5043250;28;20084;-67
2021/12/27 08:35:20;;;;;;;1999.90;999.90;;;;;;;-9.22;94.88;159959.50;5036409;28;20081;-66
2021/12/27 08:37:47;;;;;;;1999.90;999.90;;;;;;;-8.51;92.44;160146.84;5044553;28;20394;-64
2021/12/27 08:40:15;;;;;;;1999.90;999.90;;;;;;;-8.95;93.46;160030.06;5038602;28;20045;-64
2021/12/27 08:42:42;;;;;;;1999.90;999.90;;;;;;;-8.94;93.22;160032.81;5047570;28;20432;-64
2021/12/27 08:45:09;;;;;;;1999.90;999.90;;;;;;;-8.90;93.23;160042.28;5047434;28;20079;-64
2021/12/27 08:47:36;;;;;;;1999.90;999.90;;;;;;;-8.87;92.79;160051.81;5041005;28;20132;-65
2021/12/27 08:50:05;;;;;;;1999.90;999.90;;;;;;;-8.91;93.17;160039.59;5037528;28;20084;-65
2021/12/27 08:52:33;;;;;;;1999.90;999.90;;;;;;;-8.46;91.85;160159.06;5045634;28;20414;-66
2021/12/27 08:55:03;;;;;;;1999.90;999.90;;;;;;;-7.89;90.75;160309.84;5044935;28;20052;-67
2021/12/27 08:57:32;;;;;;;1999.90;999.90;;;;;;;-7.87;90.56;160315.25;5046810;28;20322;-66
2021/12/27 08:59:59;;;;;;;1999.90;999.90;;;;;;;-7.80;89.91;160334.28;5049413;28;20237;-66
2021/12/27 09:02:25;;;;;;;1999.90;999.90;;;;;;;-7.72;90.57;160353.31;5045355;28;20418;-66
2021/12/27 09:04:54;;;;;;;1999.90;999.90;;;;;;;-7.54;89.13;160402.22;5051264;28;20049;-66
2021/12/27 09:07:21;;;;;;;1999.90;999.90;;;;;;;-8.56;92.98;160133.31;5044521;28;20045;-66
2021/12/27 09:09:47;;;;;;;1999.90;999.90;;;;;;;-8.67;93.08;160103.41;5046393;28;20060;-66
2021/12/27 09:12:14;;;;;;;1999.90;999.90;;;;;;;-8.57;93.91;160129.22;5043257;28;20106;-66
2021/12/27 09:14:40;;;;;;;1999.90;999.90;;;;;;;-7.95;92.36;160293.47;5047559;28;20099;-66
2021/12/27 09:17:07;;;;;;;1999.90;999.90;;;;;;;-8.32;92.66;160197.06;5045801;28;20049;-65
2021/12/27 09:19:33;;;;;;;1999.90;999.90;;;;;;;-8.78;94.61;160074.91;5051856;28;20057;-64
2021/12/27 09:22:00;;;;;;;1999.90;999.90;;;;;;;-8.95;96.33;160028.75;5053770;28;20087;-65
2021/12/27 09:24:28;;;;;;;1999.90;999.90;;;;;;;-8.80;96.11;160068.09;5047294;28;20048;-65
2021/12/27 09:26:55;;;;;;;1999.90;999.90;;;;;;;-8.95;96.48;160030.06;5049581;28;20045;-65
2021/12/27 09:29:22;;;;;;;1999.90;999.90;;;;;;;-8.58;95.86;160127.84;5051728;28;20102;-66
2021/12/27 09:31:50;;;;;;;1999.90;999.90;;;;;;;-7.26;91.99;160475.63;5051749;28;20297;-66
2021/12/27 09:34:17;;;;;;;1999.90;999.90;;;;;;;-6.99;88.86;160546.31;5044890;28;20055;-66
2021/12/27 09:36:45;;;;;;;1999.90;999.90;;;;;;;-8.33;92.34;160194.34;5050310;28;20047;-66
2021/12/27 09:39:12;;;;;;;1999.90;999.90;;;;;;;-8.03;93.80;160271.78;5048321;28;20096;-66
2021/12/27 09:41:39;;;;;;;1999.90;999.90;;;;;;;-7.94;93.23;160294.88;5050522;28;20390;-66
2021/12/27 09:44:06;;;;;;;1999.90;999.90;;;;;;;-7.98;92.54;160286.72;5053283;28;20107;-66
2021/12/27 09:46:33;;;;;;;1999.90;999.90;;;;;;;-8.48;93.05;160152.28;5047998;28;20103;-66
2021/12/27 09:49:05;;;;;;;1999.90;999.90;;;;;;;-9.01;95.83;160012.47;5044700;28;20077;-66
2021/12/27 09:51:34;;;;;;;1999.90;999.90;;;;;;;-9.08;97.70;159994.78;5050218;28;20053;-66
2021/12/27 09:54:01;;;;;;;1999.90;999.90;;;;;;;-8.59;95.21;160125.16;5049442;28;20040;-65
2021/12/27 09:56:27;;;;;;;1999.90;999.90;;;;;;;-8.12;94.59;160247.34;5047449;28;20107;-66
2021/12/27 09:58:55;;;;;;;1999.90;999.90;;;;;;;-8.41;94.19;160172.63;5042780;28;20096;-65
2021/12/27 10:01:22;;;;;;;1999.90;999.90;;;;;;;-7.50;91.47;160413.09;5050701;28;20061;-65
2021/12/27 10:03:53;;;;;;;1999.90;999.90;;;;;;;-7.51;90.86;160410.38;5048224;28;20135;-66
2021/12/27 10:06:20;;;;;;;1999.90;999.90;;;;;;;-7.27;90.07;160472.91;5038398;28;20049;-66
2021/12/27 10:08:51;;;;;;;1999.90;999.90;;;;;;;-7.32;90.88;160459.31;5046793;28;20106;-66
2021/12/27 10:11:25;;;;;;;1999.90;999.90;;;;;;;-7.98;92.40;160285.34;5041493;28;20107;-66
2021/12/27 10:13:59;;;;;;;1999.90;999.90;;;;;;;-7.09;90.56;160521.81;5035575;28;20442;-66
2021/12/27 10:16:27;;;;;;;1999.90;999.90;;;;;;;-8.47;94.00;160155.00;5047118;28;20122;-66
2021/12/27 10:18:59;;;;;;;1999.90;999.90;;;;;;;-7.49;93.20;160414.44;5043532;28;20092;-66
2021/12/27 10:21:26;;;;;;;1999.90;999.90;;;;;;;-8.03;94.51;160273.13;5037519;28;20053;-66
2021/12/27 10:24:04;;;;;;;1999.90;999.90;;;;;;;-8.23;95.32;160220.16;5043600;28;20422;-66
2021/12/27 10:26:32;;;;;;;1999.90;999.90;;;;;;;-7.95;95.81;160293.47;5044121;28;20080;-66
2021/12/27 10:29:08;;;;;;;1999.90;999.90;;;;;;;-7.99;95.37;160284.00;5046342;28;20465;-66
2021/12/27 10:31:55;;;;;;;1999.90;999.90;;;;;;;-6.84;91.97;160587.09;5047669;28;20096;-66
2021/12/27 10:34:24;;;;;;;1999.90;999.90;;;;;;;-6.37;90.34;160710.91;5044574;28;20092;-66
2021/12/27 10:37:18;;;;;;;1999.90;999.90;;;;;;;-7.34;92.10;160455.25;5045795;28;20526;-65
2021/12/27 10:39:48;;;;;;;1999.90;999.90;;;;;;;-7.49;93.53;160414.44;5034215;28;20347;-66
2021/12/27 10:42:36;;;;;;;1999.90;999.90;;;;;;;-6.74;92.57;160614.31;5040368;28;20441;-67
2021/12/27 10:45:20;;;;;;;1999.90;999.90;;;;;;;-6.74;90.46;160612.97;5046471;28;20545;-67
2021/12/27 10:47:49;;;;;;;1999.90;999.90;;;;;;;-6.39;90.93;160706.75;5043959;28;20053;-66
2021/12/27 10:50:31;;;;;;;1999.90;999.90;;;;;;;-6.83;91.98;160588.44;5048597;28;20119;-66
2021/12/27 10:53:01;;;;;;;1999.90;999.90;;;;;;;-7.06;92.90;160527.28;5043730;28;20053;-66
2021/12/27 10:55:37;;;;;;;1999.90;999.90;;;;;;;-6.79;92.49;160600.72;5046053;28;20114;-65
2021/12/27 10:58:11;;;;;;;1999.90;999.90;;;;;;;-6.46;90.60;160686.38;5042838;28;21117;-66